Terminal Aerodrome Forecast
Issued by NWS Sterling, VA

Current Version | Previous Version | Graphics & Text | Print | Product List | Glossary On
Versions: 1 2 3 4 5 6 7 8 9 10 11 12 13 14 15 16 17 18 19 20 21 22 23 24 25 26 27 28
000
FTUS41 KLWX 291305 AAA
TAFIAD
TAF AMD
KIAD 291305Z 2913/3018 00000KT P6SM OVC015
     FM291400 VRB03KT P6SM BKN050
     FM292300 17005KT P6SM SCT090
     FM300200 18004KT P6SM BKN100
     FM300500 19004KT P6SM SCT250
     FM301500 25005KT P6SM SCT050
     FM301600 26006KT P6SM BKN050=

USA.gov is the U.S. government's official web portal to all federal, state and local government web resources and services.